createdAt,value
2022-12-25T00:00:06.333Z,22.61
2022-12-25T00:02:33.599Z,22.40
2022-12-25T00:05:00.970Z,21.95
2022-12-25T00:07:28.201Z,21.20
2022-12-25T00:09:55.778Z,21.46
2022-12-25T00:12:23.086Z,20.96
2022-12-25T00:14:50.643Z,22.22
2022-12-25T00:17:17.914Z,21.99
2022-12-25T00:19:45.188Z,21.66
2022-12-25T00:22:12.493Z,21.70
2022-12-25T00:24:39.905Z,21.59
2022-12-25T00:27:07.085Z,21.07
2022-12-25T00:29:34.463Z,21.97
2022-12-25T00:32:01.781Z,22.06
2022-12-25T00:34:29.183Z,21.74
2022-12-25T00:36:56.642Z,21.92
2022-12-25T00:39:24.301Z,22.04
2022-12-25T00:42:10.332Z,22.35
2022-12-25T00:44:37.591Z,22.19
2022-12-25T00:47:05.038Z,22.05
2022-12-25T00:49:32.310Z,21.39
2022-12-25T00:51:59.911Z,22.30
2022-12-25T00:54:27.237Z,21.62
2022-12-25T00:56:54.461Z,21.12
2022-12-25T00:59:21.691Z,20.85
2022-12-25T01:01:49.017Z,21.05
2022-12-25T01:04:19.249Z,21.26
2022-12-25T01:06:51.183Z,22.29
2022-12-25T01:09:38.898Z,21.40
2022-12-25T01:12:06.390Z,21.78
2022-12-25T01:14:33.781Z,22.08
2022-12-25T01:17:05.519Z,21.10
2022-12-25T01:19:32.752Z,21.11
2022-12-25T01:21:59.979Z,21.92
2022-12-25T01:24:27.260Z,21.48
2022-12-25T01:26:54.519Z,21.50
2022-12-25T01:29:21.974Z,20.90
2022-12-25T01:31:49.362Z,20.76
2022-12-25T01:34:16.740Z,20.72
2022-12-25T01:36:45.078Z,20.92
2022-12-25T01:39:12.537Z,21.16
2022-12-25T01:41:40.492Z,21.21
2022-12-25T01:44:27.842Z,20.79
2022-12-25T01:46:55.241Z,21.24
2022-12-25T01:49:27.837Z,21.56
2022-12-25T01:51:58.168Z,21.50
2022-12-25T01:54:27.312Z,20.86
2022-12-25T01:56:56.879Z,21.36
2022-12-25T01:59:26.086Z,20.92
2022-12-25T02:01:53.516Z,20.85
2022-12-25T02:04:38.746Z,21.13
2022-12-25T02:07:17.439Z,21.14
2022-12-25T02:09:45.861Z,20.62
2022-12-25T02:12:24.289Z,21.01
2022-12-25T02:14:52.748Z,20.75
2022-12-25T02:17:38.954Z,21.12
2022-12-25T02:20:06.277Z,20.75
2022-12-25T02:22:40.813Z,20.96
2022-12-25T02:25:26.890Z,20.99
2022-12-25T02:28:10.248Z,20.99
2022-12-25T02:30:43.583Z,20.50
2022-12-25T02:33:41.166Z,21.09
2022-12-25T02:36:10.457Z,20.82
2022-12-25T02:38:39.252Z,21.03
2022-12-25T02:41:09.947Z,20.51
2022-12-25T02:43:59.536Z,21.24
2022-12-25T02:46:46.550Z,20.72
2022-12-25T02:49:36.368Z,21.33
2022-12-25T02:52:30.110Z,20.68
2022-12-25T02:55:20.242Z,21.25
2022-12-25T02:58:08.507Z,21.03
2022-12-25T03:00:57.675Z,20.83
2022-12-25T03:03:47.038Z,21.02
2022-12-25T03:06:33.996Z,20.91
2022-12-25T03:09:22.891Z,21.12
2022-12-25T03:11:55.794Z,20.83
2022-12-25T03:15:01.767Z,21.31
2022-12-25T03:17:30.674Z,20.90
2022-12-25T03:20:17.119Z,21.43
2022-12-25T03:23:03.596Z,21.28
2022-12-25T03:25:49.590Z,21.42
2022-12-25T03:28:17.220Z,20.95
2022-12-25T03:31:12.602Z,21.28
2022-12-25T03:34:03.100Z,20.97
2022-12-25T03:36:55.880Z,21.21
2022-12-25T03:40:07.347Z,21.27
2022-12-25T03:43:02.715Z,20.91
2022-12-25T03:45:56.862Z,20.92
2022-12-25T03:48:44.194Z,21.05
2022-12-25T03:51:31.934Z,20.69
2022-12-25T03:54:21.106Z,20.90
2022-12-25T03:57:08.013Z,21.13
2022-12-25T03:59:53.775Z,21.53
2022-12-25T04:02:39.718Z,21.02
2022-12-25T04:05:25.776Z,21.55
2022-12-25T04:08:11.768Z,20.59
2022-12-25T04:10:57.418Z,20.51
2022-12-25T04:13:43.402Z,20.71
2022-12-25T04:16:29.213Z,21.66
2022-12-25T04:19:15.382Z,21.55
2022-12-25T04:22:01.343Z,21.21
2022-12-25T04:24:47.292Z,21.56
2022-12-25T04:27:33.123Z,21.11
2022-12-25T04:30:19.222Z,21.55
2022-12-25T04:33:05.258Z,21.25
2022-12-25T04:35:51.232Z,21.50
2022-12-25T04:38:21.176Z,21.23
2022-12-25T04:40:48.467Z,21.08
2022-12-25T04:43:15.793Z,21.56
2022-12-25T04:45:43.329Z,21.63
2022-12-25T04:48:10.524Z,22.07
2022-12-25T04:50:37.747Z,22.03
2022-12-25T04:53:05.008Z,21.10
2022-12-25T04:55:32.223Z,20.83
2022-12-25T04:57:59.427Z,21.72
2022-12-25T05:00:26.884Z,21.57
2022-12-25T05:02:54.272Z,21.50
2022-12-25T05:05:21.663Z,22.19
2022-12-25T05:07:48.974Z,21.50
2022-12-25T05:10:16.441Z,21.78
2022-12-25T05:12:43.722Z,21.78
2022-12-25T05:15:12.268Z,20.90
2022-12-25T05:17:40.355Z,21.55
2022-12-25T05:20:08.179Z,21.49
2022-12-25T05:22:35.584Z,21.25
2022-12-25T05:25:28.284Z,21.50
2022-12-25T05:27:58.131Z,21.37
2022-12-25T05:30:25.408Z,21.11
2022-12-25T05:32:52.616Z,20.89
2022-12-25T05:35:19.971Z,20.98
2022-12-25T05:37:47.159Z,20.97
2022-12-25T05:40:14.624Z,20.74
2022-12-25T05:42:41.847Z,20.81
2022-12-25T05:45:09.407Z,21.16
2022-12-25T05:47:36.707Z,22.23
2022-12-25T05:50:05.786Z,22.17
2022-12-25T05:52:33.997Z,21.29
2022-12-25T05:55:02.358Z,22.33
2022-12-25T05:57:30.345Z,21.49
2022-12-25T05:59:58.388Z,21.58
2022-12-25T06:02:26.356Z,22.06
2022-12-25T06:04:54.063Z,22.22
2022-12-25T06:07:21.392Z,22.88
2022-12-25T06:09:48.604Z,22.38
2022-12-25T06:12:15.918Z,22.68
2022-12-25T06:14:43.155Z,23.09
2022-12-25T06:17:10.736Z,22.16
2022-12-25T06:19:38.285Z,22.03
2022-12-25T06:22:05.923Z,21.54
2022-12-25T06:24:33.676Z,21.09
2022-12-25T06:27:01.143Z,21.31
2022-12-25T06:29:28.413Z,21.24
2022-12-25T06:31:57.351Z,21.56
2022-12-25T06:34:24.945Z,21.95
2022-12-25T06:36:52.139Z,22.44
2022-12-25T06:39:21.465Z,21.72
2022-12-25T06:41:48.733Z,23.19
2022-12-25T06:44:16.664Z,22.43
2022-12-25T06:46:44.196Z,22.13
2022-12-25T06:49:11.622Z,21.96
2022-12-25T06:51:38.949Z,21.96
2022-12-25T06:54:07.116Z,22.23
2022-12-25T06:56:34.940Z,22.38
2022-12-25T06:59:06.621Z,21.85
2022-12-25T07:01:36.982Z,22.62
2022-12-25T07:04:06.885Z,22.03
2022-12-25T07:06:35.194Z,21.16
2022-12-25T07:09:02.899Z,20.68
2022-12-25T07:11:30.196Z,21.44
2022-12-25T07:13:57.566Z,22.03
2022-12-25T07:16:24.951Z,21.51
2022-12-25T07:18:52.184Z,20.91
2022-12-25T07:21:20.665Z,21.87
2022-12-25T07:23:48.928Z,21.57
2022-12-25T07:26:17.414Z,21.52
2022-12-25T07:28:44.693Z,20.94
2022-12-25T07:31:13.748Z,22.18
2022-12-25T07:33:41.263Z,22.19
2022-12-25T07:36:12.844Z,22.17
2022-12-25T07:38:41.413Z,22.02
2022-12-25T07:41:10.187Z,22.49
2022-12-25T07:43:37.670Z,22.36
2022-12-25T07:46:06.411Z,21.53
2022-12-25T07:48:34.928Z,21.39
2022-12-25T07:51:06.719Z,21.20
2022-12-25T07:53:34.274Z,20.20
2022-12-25T07:56:03.083Z,20.81
2022-12-25T07:58:31.549Z,20.81
2022-12-25T08:01:07.882Z,21.70
2022-12-25T08:03:35.953Z,21.68
2022-12-25T08:06:04.806Z,21.41
2022-12-25T08:08:33.169Z,21.36
2022-12-25T08:11:00.508Z,21.52
2022-12-25T08:13:31.111Z,21.62
2022-12-25T08:16:02.745Z,21.20
2022-12-25T08:18:31.950Z,22.03
2022-12-25T08:21:04.155Z,21.28
2022-12-25T08:23:34.286Z,21.81
2022-12-25T08:26:05.424Z,21.96
2022-12-25T08:28:33.736Z,22.00
2022-12-25T08:31:06.176Z,22.26
2022-12-25T08:33:33.538Z,21.87
2022-12-25T08:36:05.583Z,21.39
2022-12-25T08:38:32.812Z,21.44
2022-12-25T08:41:01.501Z,21.18
2022-12-25T08:43:28.867Z,21.08
2022-12-25T08:45:57.021Z,20.98
2022-12-25T08:48:24.581Z,21.10
2022-12-25T08:50:52.740Z,20.95
2022-12-25T08:53:21.932Z,20.69
2022-12-25T08:55:49.778Z,21.25
2022-12-25T08:58:19.284Z,21.33
2022-12-25T09:00:47.918Z,21.23
2022-12-25T09:03:15.546Z,21.27
2022-12-25T09:05:43.095Z,21.22
2022-12-25T09:08:11.543Z,21.11
2022-12-25T09:10:38.977Z,21.34
2022-12-25T09:13:07.003Z,21.24
2022-12-25T09:15:35.189Z,21.37
2022-12-25T09:18:02.607Z,21.01
2022-12-25T09:20:31.502Z,21.71
2022-12-25T09:22:59.298Z,21.30
2022-12-25T09:25:27.106Z,21.47
2022-12-25T09:27:56.481Z,21.67
2022-12-25T09:30:24.152Z,21.28
2022-12-25T09:32:51.360Z,21.28
2022-12-25T09:35:19.164Z,21.34
2022-12-25T09:37:46.406Z,21.54
2022-12-25T09:40:19.013Z,21.64
2022-12-25T09:42:47.425Z,21.42
2022-12-25T09:45:33.945Z,21.53
2022-12-25T09:48:01.201Z,21.40
2022-12-25T09:50:35.680Z,20.88
2022-12-25T09:53:06.026Z,21.20
2022-12-25T09:55:36.352Z,21.42
2022-12-25T09:58:10.053Z,21.11
2022-12-25T10:00:42.541Z,21.84
2022-12-25T10:03:22.103Z,21.97
2022-12-25T10:05:58.808Z,21.27
2022-12-25T10:08:46.808Z,21.15
2022-12-25T10:11:33.307Z,20.86
2022-12-25T10:14:15.072Z,21.08
2022-12-25T10:16:51.605Z,21.45
2022-12-25T10:19:37.954Z,21.50
2022-12-25T10:22:11.490Z,21.74
2022-12-25T10:24:43.549Z,21.18
2022-12-25T10:27:25.640Z,21.42
2022-12-25T10:29:54.826Z,20.96
2022-12-25T10:32:23.510Z,21.23
2022-12-25T10:34:51.254Z,20.92
2022-12-25T10:37:19.624Z,21.33
2022-12-25T10:39:47.367Z,21.55
2022-12-25T10:42:24.054Z,20.90
2022-12-25T10:44:56.882Z,21.01
2022-12-25T10:47:30.149Z,21.12
2022-12-25T10:49:58.300Z,21.56
2022-12-25T10:52:27.465Z,21.31
2022-12-25T10:54:55.479Z,21.02
2022-12-25T10:57:24.919Z,21.27
2022-12-25T10:59:56.108Z,21.29
2022-12-25T11:02:28.139Z,21.02
2022-12-25T11:05:24.529Z,21.09
2022-12-25T11:07:55.702Z,21.12
2022-12-25T11:10:29.520Z,20.59
2022-12-25T11:12:57.912Z,20.91
2022-12-25T11:15:32.352Z,21.39
2022-12-25T11:18:02.271Z,21.03
2022-12-25T11:20:30.662Z,21.29
2022-12-25T11:22:57.867Z,21.13
2022-12-25T11:25:26.382Z,21.27
2022-12-25T11:28:02.177Z,21.20
2022-12-25T11:30:31.318Z,20.82
2022-12-25T11:33:01.652Z,20.64
2022-12-25T11:35:31.225Z,21.64
2022-12-25T11:37:58.837Z,21.31
2022-12-25T11:40:34.825Z,21.22
2022-12-25T11:43:20.231Z,21.57
2022-12-25T11:45:52.068Z,21.12
2022-12-25T11:48:24.772Z,21.14
2022-12-25T11:50:56.284Z,21.01
2022-12-25T11:53:41.507Z,21.57
2022-12-25T11:56:17.089Z,21.17
2022-12-25T11:58:50.858Z,21.52
2022-12-25T12:01:31.241Z,21.48
2022-12-25T12:04:01.975Z,20.45
2022-12-25T12:06:29.665Z,19.73
2022-12-25T12:09:03.763Z,21.03
2022-12-25T12:11:36.722Z,20.94
2022-12-25T12:14:11.613Z,20.72
2022-12-25T12:16:39.083Z,20.76
2022-12-25T12:19:13.563Z,20.62
2022-12-25T12:25:34.737Z,21.46
2022-12-25T12:28:51.698Z,21.10
2022-12-25T12:31:37.824Z,21.17
2022-12-25T12:34:51.263Z,20.91
2022-12-25T12:37:44.805Z,20.83
2022-12-25T12:41:07.699Z,20.91
2022-12-25T12:50:00.236Z,20.61
2022-12-25T12:56:26.733Z,21.71
2022-12-25T12:59:01.919Z,20.97
2022-12-25T13:01:53.643Z,21.48
2022-12-25T13:04:54.698Z,21.36
2022-12-25T13:12:48.179Z,22.08
2022-12-25T13:15:52.567Z,22.59
2022-12-25T13:19:15.840Z,21.39
2022-12-25T13:22:13.755Z,22.12
2022-12-25T13:25:09.199Z,22.22
2022-12-25T13:28:02.516Z,22.40
2022-12-25T13:34:24.301Z,21.60
2022-12-25T13:36:54.560Z,22.13
2022-12-25T13:39:34.727Z,22.08
2022-12-25T13:42:14.899Z,21.36
2022-12-25T13:44:46.835Z,21.98
2022-12-25T13:47:27.396Z,22.29
2022-12-25T13:50:36.944Z,22.22
2022-12-25T13:53:13.525Z,22.08
2022-12-25T13:56:06.094Z,22.09
2022-12-25T13:58:41.092Z,22.19
2022-12-25T14:01:08.869Z,22.07
2022-12-25T14:03:39.352Z,23.12
2022-12-25T14:06:38.490Z,21.59
2022-12-25T14:09:10.035Z,23.02
2022-12-25T14:12:05.920Z,23.16
2022-12-25T14:14:51.096Z,22.38
2022-12-25T14:17:22.219Z,22.13
2022-12-25T14:20:08.316Z,21.61
2022-12-25T14:23:09.019Z,21.65
2022-12-25T14:28:50.722Z,22.82
2022-12-25T14:31:38.429Z,21.40
2022-12-25T14:34:30.785Z,21.65
2022-12-25T14:37:01.060Z,22.25
2022-12-25T14:39:47.756Z,23.00
2022-12-25T14:42:43.583Z,21.88
2022-12-25T14:45:39.831Z,21.31
2022-12-25T14:48:36.746Z,21.21
2022-12-25T14:51:15.582Z,21.61
2022-12-25T14:54:21.554Z,21.61
2022-12-25T14:57:02.363Z,21.34
2022-12-25T14:59:31.803Z,22.35
2022-12-25T15:02:15.479Z,21.21
2022-12-25T15:04:43.321Z,21.65
2022-12-25T15:07:30.605Z,21.32
2022-12-25T15:10:28.658Z,21.73
2022-12-25T15:12:45.375Z,21.15
2022-12-25T15:15:12.690Z,21.75
2022-12-25T15:17:40.009Z,21.43
2022-12-25T15:20:09.067Z,21.02
2022-12-25T15:23:02.160Z,21.99
2022-12-25T15:25:24.284Z,21.45
2022-12-25T15:27:51.504Z,21.36
2022-12-25T15:30:18.877Z,21.24
2022-12-25T15:32:46.113Z,21.57
2022-12-25T15:35:19.109Z,21.22
2022-12-25T15:37:46.981Z,21.43
2022-12-25T15:40:15.281Z,21.15
2022-12-25T15:42:44.931Z,21.72
2022-12-25T15:45:23.859Z,21.38
2022-12-25T15:47:51.264Z,21.59
2022-12-25T15:50:19.055Z,21.29
2022-12-25T15:52:47.386Z,21.50
2022-12-25T15:55:15.789Z,21.37
2022-12-25T15:57:44.346Z,21.49
2022-12-25T16:00:16.728Z,21.41
2022-12-25T16:02:44.585Z,21.66
2022-12-25T16:05:12.493Z,21.56
2022-12-25T16:07:40.239Z,21.55
2022-12-25T16:10:11.759Z,21.57
2022-12-25T16:12:39.092Z,21.81
2022-12-25T16:15:06.874Z,21.80
2022-12-25T16:17:34.153Z,21.69
2022-12-25T16:20:01.869Z,21.40
2022-12-25T16:22:29.651Z,21.47
2022-12-25T16:24:56.900Z,21.44
2022-12-25T16:27:24.352Z,21.33
2022-12-25T16:29:52.155Z,21.38
2022-12-25T16:32:19.612Z,21.68
2022-12-25T16:34:48.364Z,20.81
2022-12-25T16:37:15.772Z,21.21
2022-12-25T16:39:42.948Z,21.53
2022-12-25T16:42:10.308Z,21.11
2022-12-25T16:44:37.740Z,21.15
2022-12-25T16:47:05.717Z,21.58
2022-12-25T16:49:33.209Z,21.45
2022-12-25T16:52:00.579Z,21.28
2022-12-25T16:54:27.840Z,21.61
2022-12-25T16:56:55.263Z,21.04
2022-12-25T16:59:22.513Z,21.33
2022-12-25T17:01:49.958Z,20.69
2022-12-25T17:04:17.220Z,21.33
2022-12-25T17:06:44.511Z,20.97
2022-12-25T17:09:11.724Z,21.41
2022-12-25T17:11:39.104Z,21.33
2022-12-25T17:14:07.064Z,21.26
2022-12-25T17:16:35.294Z,21.77
2022-12-25T17:19:04.520Z,21.07
2022-12-25T17:21:35.155Z,21.62
2022-12-25T17:24:04.171Z,21.62
2022-12-25T17:26:32.153Z,21.36
2022-12-25T17:29:01.309Z,21.00
2022-12-25T17:31:29.032Z,21.19
2022-12-25T17:33:56.451Z,21.01
2022-12-25T17:36:27.634Z,21.06
2022-12-25T17:38:55.131Z,21.58
2022-12-25T17:41:22.372Z,21.56
2022-12-25T17:43:50.076Z,21.28
2022-12-25T17:46:18.928Z,21.46
2022-12-25T17:48:46.702Z,21.59
2022-12-25T17:51:16.305Z,21.48
2022-12-25T17:53:44.907Z,21.47
2022-12-25T17:56:12.690Z,21.56
2022-12-25T17:58:40.727Z,21.81
2022-12-25T18:01:09.691Z,21.62
2022-12-25T18:03:37.163Z,21.58
2022-12-25T18:06:05.688Z,21.52
2022-12-25T18:08:38.872Z,21.38
2022-12-25T18:11:08.866Z,21.21
2022-12-25T18:13:36.549Z,21.12
2022-12-25T18:16:05.223Z,21.29
2022-12-25T18:18:33.707Z,21.00
2022-12-25T18:21:02.248Z,21.18
2022-12-25T18:23:29.574Z,21.01
2022-12-25T18:25:57.273Z,21.06
2022-12-25T18:28:25.819Z,21.38
2022-12-25T18:30:53.186Z,21.37
2022-12-25T18:33:20.555Z,21.28
2022-12-25T18:35:48.257Z,21.13
2022-12-25T18:38:16.078Z,21.02
2022-12-25T18:40:49.202Z,21.37
2022-12-25T18:43:17.481Z,21.21
2022-12-25T18:45:45.613Z,21.14
2022-12-25T18:48:12.879Z,21.34
2022-12-25T18:50:40.688Z,21.13
2022-12-25T18:53:08.150Z,20.88
2022-12-25T18:55:36.307Z,21.64
2022-12-25T18:58:07.892Z,21.64
2022-12-25T19:00:35.229Z,21.64
2022-12-25T19:03:02.610Z,20.31
2022-12-25T19:05:30.156Z,21.61
2022-12-25T19:07:57.369Z,21.63
2022-12-25T19:10:28.324Z,21.28
2022-12-25T19:12:55.867Z,21.26
2022-12-25T19:15:23.466Z,21.35
2022-12-25T19:17:51.186Z,21.16
2022-12-25T19:20:21.607Z,20.94
2022-12-25T19:22:51.388Z,21.85
2022-12-25T19:25:18.886Z,21.13
2022-12-25T19:27:46.502Z,21.41
2022-12-25T19:30:17.605Z,21.28
2022-12-25T19:33:17.529Z,21.23
2022-12-25T19:35:48.067Z,21.47
2022-12-25T19:38:15.948Z,21.32
2022-12-25T19:41:00.351Z,21.71
2022-12-25T19:43:29.411Z,21.31
2022-12-25T19:45:57.051Z,21.37
2022-12-25T19:48:24.369Z,22.12
2022-12-25T19:50:52.375Z,21.10
2022-12-25T19:53:23.195Z,21.77
2022-12-25T19:55:54.294Z,21.81
2022-12-25T19:58:22.531Z,21.39
2022-12-25T20:01:09.324Z,21.74
2022-12-25T20:03:43.654Z,21.98
2022-12-25T20:06:24.988Z,21.76
2022-12-25T20:08:58.859Z,21.83
2022-12-25T20:11:28.186Z,21.86
2022-12-25T20:13:56.364Z,21.68
2022-12-25T20:16:25.682Z,21.70
2022-12-25T20:18:53.279Z,21.23
2022-12-25T20:21:21.905Z,21.81
2022-12-25T20:23:50.669Z,21.34
2022-12-25T20:26:19.520Z,22.50
2022-12-25T20:28:47.475Z,22.30
2022-12-25T20:31:17.299Z,22.48
2022-12-25T20:33:45.527Z,21.84
2022-12-25T20:36:13.290Z,21.78
2022-12-25T20:38:45.294Z,22.08
2022-12-25T20:41:27.325Z,20.99
2022-12-25T20:43:56.126Z,22.81
2022-12-25T20:46:24.211Z,22.67
2022-12-25T20:48:53.162Z,22.75
2022-12-25T20:51:24.691Z,22.36
2022-12-25T20:53:53.030Z,21.84
2022-12-25T20:56:22.243Z,22.73
2022-12-25T20:58:56.898Z,22.32
2022-12-25T21:01:24.982Z,22.35
2022-12-25T21:03:53.431Z,21.75
2022-12-25T21:06:21.810Z,22.30
2022-12-25T21:08:49.995Z,22.02
2022-12-25T21:11:18.502Z,22.28
2022-12-25T21:13:47.087Z,22.16
2022-12-25T21:16:17.795Z,22.78
2022-12-25T21:18:46.933Z,22.02
2022-12-25T21:21:15.444Z,23.21
2022-12-25T21:23:43.295Z,22.22
2022-12-25T21:26:12.318Z,22.07
2022-12-25T21:29:05.409Z,22.24
2022-12-25T21:31:55.974Z,22.93
2022-12-25T21:34:23.590Z,22.32
2022-12-25T21:36:51.841Z,23.07
2022-12-25T21:39:21.723Z,22.63
2022-12-25T21:41:49.133Z,22.48
2022-12-25T21:44:16.320Z,22.48
2022-12-25T21:46:43.938Z,22.49
2022-12-25T21:49:11.201Z,22.53
2022-12-25T21:51:58.330Z,21.72
2022-12-25T21:54:25.699Z,21.73
2022-12-25T21:56:52.945Z,22.59
2022-12-25T21:59:21.152Z,23.14
2022-12-25T22:01:49.913Z,22.80
2022-12-25T22:04:18.802Z,22.27
2022-12-25T22:07:05.545Z,22.83
2022-12-25T22:09:32.924Z,22.37
2022-12-25T22:12:18.819Z,23.11
2022-12-25T22:14:54.987Z,23.39
2022-12-25T22:17:42.606Z,22.23
2022-12-25T22:20:12.309Z,23.10
2022-12-25T22:22:39.824Z,22.65
2022-12-25T22:25:09.699Z,23.23
2022-12-25T22:27:38.270Z,22.08
2022-12-25T22:30:07.518Z,22.83
2022-12-25T22:32:35.314Z,23.48
2022-12-25T22:35:04.130Z,23.23
2022-12-25T22:37:31.897Z,23.42
2022-12-25T22:40:02.872Z,22.88
2022-12-25T22:42:30.764Z,21.97
2022-12-25T22:45:24.538Z,23.33
2022-12-25T22:47:52.122Z,22.28
2022-12-25T22:50:26.005Z,23.87
2022-12-25T22:52:54.084Z,23.88
2022-12-25T22:55:21.590Z,22.46
2022-12-25T22:57:49.173Z,22.55
2022-12-25T23:00:16.502Z,22.29
2022-12-25T23:02:44.015Z,22.24
2022-12-25T23:05:11.508Z,22.33
2022-12-25T23:07:38.868Z,23.24
2022-12-25T23:10:06.769Z,23.35
2022-12-25T23:12:52.420Z,23.23
2022-12-25T23:15:19.686Z,23.65
2022-12-25T23:18:05.463Z,22.55
2022-12-25T23:20:51.561Z,23.25
2022-12-25T23:23:37.622Z,23.60
2022-12-25T23:26:08.232Z,23.40
2022-12-25T23:28:58.970Z,23.55
2022-12-25T23:31:31.008Z,22.86
2022-12-25T23:33:59.039Z,22.62
2022-12-25T23:36:30.296Z,22.41
2022-12-25T23:39:04.725Z,22.94
2022-12-25T23:41:36.476Z,23.23
2022-12-25T23:44:04.167Z,22.42
2022-12-25T23:46:31.752Z,22.90
2022-12-25T23:48:59.200Z,22.99
2022-12-25T23:51:26.767Z,22.95
2022-12-25T23:53:53.952Z,22.57
2022-12-25T23:56:21.441Z,22.71
2022-12-25T23:58:52.113Z,22.51
